sensor_id;sensor_type;location;lat;lon;timestamp;temperature;humidity
37528;DHT22;23372;52.050;4.810;2023-04-25T00:00:28;5.70;99.90
37528;DHT22;23372;52.050;4.810;2023-04-25T00:02:54;5.60;99.90
37528;DHT22;23372;52.050;4.810;2023-04-25T00:05:25;5.60;99.90
37528;DHT22;23372;52.050;4.810;2023-04-25T00:07:51;5.60;99.90
37528;DHT22;23372;52.050;4.810;2023-04-25T00:10:18;5.50;99.90
37528;DHT22;23372;52.050;4.810;2023-04-25T00:12:44;5.60;99.90
37528;DHT22;23372;52.050;4.810;2023-04-25T00:15:11;5.50;99.90
37528;DHT22;23372;52.050;4.810;2023-04-25T00:17:37;5.40;99.90
37528;DHT22;23372;52.050;4.810;2023-04-25T00:20:04;5.40;99.90
37528;DHT22;23372;52.050;4.810;2023-04-25T00:22:30;5.40;99.90
37528;DHT22;23372;52.050;4.810;2023-04-25T00:24:56;5.30;99.90
37528;DHT22;23372;52.050;4.810;2023-04-25T00:27:27;5.30;99.90
37528;DHT22;23372;52.050;4.810;2023-04-25T00:29:52;5.30;99.90
37528;DHT22;23372;52.050;4.810;2023-04-25T00:32:18;5.20;99.90
37528;DHT22;23372;52.050;4.810;2023-04-25T00:34:44;5.10;99.90
37528;DHT22;23372;52.050;4.810;2023-04-25T00:37:10;5.10;99.90
37528;DHT22;23372;52.050;4.810;2023-04-25T00:39:37;5.10;99.90
37528;DHT22;23372;52.050;4.810;2023-04-25T00:42:03;5.20;99.90
37528;DHT22;23372;52.050;4.810;2023-04-25T00:44:30;5.20;99.90
37528;DHT22;23372;52.050;4.810;2023-04-25T00:46:57;5.10;99.90
37528;DHT22;23372;52.050;4.810;2023-04-25T00:49:23;5.10;99.90
37528;DHT22;23372;52.050;4.810;2023-04-25T00:51:49;5.00;99.90
37528;DHT22;23372;52.050;4.810;2023-04-25T00:54:15;5.00;99.90
37528;DHT22;23372;52.050;4.810;2023-04-25T00:56:42;4.90;99.90
37528;DHT22;23372;52.050;4.810;2023-04-25T00:59:09;4.90;99.90
37528;DHT22;23372;52.050;4.810;2023-04-25T01:01:35;4.80;99.90
37528;DHT22;23372;52.050;4.810;2023-04-25T01:04:01;4.80;99.90
37528;DHT22;23372;52.050;4.810;2023-04-25T01:06:27;4.90;99.90
37528;DHT22;23372;52.050;4.810;2023-04-25T01:08:53;5.00;99.90
37528;DHT22;23372;52.050;4.810;2023-04-25T01:11:19;4.90;99.90
37528;DHT22;23372;52.050;4.810;2023-04-25T01:13:45;5.00;99.90
37528;DHT22;23372;52.050;4.810;2023-04-25T01:16:11;5.00;99.90
37528;DHT22;23372;52.050;4.810;2023-04-25T01:18:39;5.00;99.90
37528;DHT22;23372;52.050;4.810;2023-04-25T01:21:10;5.10;99.90
37528;DHT22;23372;52.050;4.810;2023-04-25T01:23:37;5.10;99.90
37528;DHT22;23372;52.050;4.810;2023-04-25T01:26:03;5.10;99.90
37528;DHT22;23372;52.050;4.810;2023-04-25T01:28:30;5.00;99.90
37528;DHT22;23372;52.050;4.810;2023-04-25T01:30:57;5.00;99.90
37528;DHT22;23372;52.050;4.810;2023-04-25T01:33:22;4.90;99.90
37528;DHT22;23372;52.050;4.810;2023-04-25T01:35:48;4.90;99.90
37528;DHT22;23372;52.050;4.810;2023-04-25T01:38:14;4.90;99.90
37528;DHT22;23372;52.050;4.810;2023-04-25T01:40:40;4.90;99.90
37528;DHT22;23372;52.050;4.810;2023-04-25T01:43:07;4.90;99.90
37528;DHT22;23372;52.050;4.810;2023-04-25T01:45:41;4.90;99.90
37528;DHT22;23372;52.050;4.810;2023-04-25T01:48:08;4.80;99.90
37528;DHT22;23372;52.050;4.810;2023-04-25T01:50:34;4.80;99.90
37528;DHT22;23372;52.050;4.810;2023-04-25T01:53:00;4.70;99.90
37528;DHT22;23372;52.050;4.810;2023-04-25T01:55:27;4.70;99.90
37528;DHT22;23372;52.050;4.810;2023-04-25T01:57:53;4.60;99.90
37528;DHT22;23372;52.050;4.810;2023-04-25T02:00:18;4.60;99.90
37528;DHT22;23372;52.050;4.810;2023-04-25T02:02:44;4.70;99.90
37528;DHT22;23372;52.050;4.810;2023-04-25T02:05:10;4.70;99.90
37528;DHT22;23372;52.050;4.810;2023-04-25T02:07:35;4.60;99.90
37528;DHT22;23372;52.050;4.810;2023-04-25T02:10:01;4.60;99.90
37528;DHT22;23372;52.050;4.810;2023-04-25T02:12:27;4.60;99.90
37528;DHT22;23372;52.050;4.810;2023-04-25T02:14:53;4.60;99.90
37528;DHT22;23372;52.050;4.810;2023-04-25T02:17:19;4.50;99.90
37528;DHT22;23372;52.050;4.810;2023-04-25T02:19:44;4.50;99.90
37528;DHT22;23372;52.050;4.810;2023-04-25T02:22:10;4.50;99.90
37528;DHT22;23372;52.050;4.810;2023-04-25T02:24:36;4.40;99.90
37528;DHT22;23372;52.050;4.810;2023-04-25T02:27:02;4.50;99.90
37528;DHT22;23372;52.050;4.810;2023-04-25T02:29:29;4.50;99.90
37528;DHT22;23372;52.050;4.810;2023-04-25T02:31:55;4.60;99.90
37528;DHT22;23372;52.050;4.810;2023-04-25T02:34:21;4.70;99.90
37528;DHT22;23372;52.050;4.810;2023-04-25T02:36:48;4.80;99.90
37528;DHT22;23372;52.050;4.810;2023-04-25T02:39:14;4.90;99.90
37528;DHT22;23372;52.050;4.810;2023-04-25T02:41:39;4.90;99.90
37528;DHT22;23372;52.050;4.810;2023-04-25T02:44:05;5.00;99.90
37528;DHT22;23372;52.050;4.810;2023-04-25T02:46:31;5.10;99.90
37528;DHT22;23372;52.050;4.810;2023-04-25T02:48:56;5.10;99.90
37528;DHT22;23372;52.050;4.810;2023-04-25T02:51:22;5.10;99.90
37528;DHT22;23372;52.050;4.810;2023-04-25T02:53:47;5.20;99.90
37528;DHT22;23372;52.050;4.810;2023-04-25T02:56:13;5.30;99.90
37528;DHT22;23372;52.050;4.810;2023-04-25T02:58:39;5.30;99.90
37528;DHT22;23372;52.050;4.810;2023-04-25T03:01:05;5.30;99.90
37528;DHT22;23372;52.050;4.810;2023-04-25T03:03:30;5.40;99.90
37528;DHT22;23372;52.050;4.810;2023-04-25T03:05:56;5.50;99.90
37528;DHT22;23372;52.050;4.810;2023-04-25T03:08:22;5.50;99.90
37528;DHT22;23372;52.050;4.810;2023-04-25T03:10:48;5.50;99.90
37528;DHT22;23372;52.050;4.810;2023-04-25T03:13:15;5.50;99.90
37528;DHT22;23372;52.050;4.810;2023-04-25T03:15:41;5.60;99.90
37528;DHT22;23372;52.050;4.810;2023-04-25T03:18:06;5.60;99.90
37528;DHT22;23372;52.050;4.810;2023-04-25T03:20:32;5.60;99.90
37528;DHT22;23372;52.050;4.810;2023-04-25T03:22:57;5.60;99.90
37528;DHT22;23372;52.050;4.810;2023-04-25T03:25:23;5.70;99.90
37528;DHT22;23372;52.050;4.810;2023-04-25T03:27:49;5.60;99.90
37528;DHT22;23372;52.050;4.810;2023-04-25T03:30:15;5.50;99.90
37528;DHT22;23372;52.050;4.810;2023-04-25T03:32:40;5.50;99.90
37528;DHT22;23372;52.050;4.810;2023-04-25T03:35:06;5.50;99.90
37528;DHT22;23372;52.050;4.810;2023-04-25T03:37:32;5.50;99.90
37528;DHT22;23372;52.050;4.810;2023-04-25T03:39:58;5.50;99.90
37528;DHT22;23372;52.050;4.810;2023-04-25T03:42:23;5.50;99.90
37528;DHT22;23372;52.050;4.810;2023-04-25T03:44:50;5.50;99.90
37528;DHT22;23372;52.050;4.810;2023-04-25T03:47:16;5.50;99.90
37528;DHT22;23372;52.050;4.810;2023-04-25T03:49:43;5.40;99.90
37528;DHT22;23372;52.050;4.810;2023-04-25T03:52:08;5.40;99.90
37528;DHT22;23372;52.050;4.810;2023-04-25T03:54:34;5.40;99.90
37528;DHT22;23372;52.050;4.810;2023-04-25T03:57:00;5.40;99.90
37528;DHT22;23372;52.050;4.810;2023-04-25T03:59:25;5.30;99.90
37528;DHT22;23372;52.050;4.810;2023-04-25T04:01:52;5.40;99.90
37528;DHT22;23372;52.050;4.810;2023-04-25T04:04:18;5.30;99.90
37528;DHT22;23372;52.050;4.810;2023-04-25T04:06:43;5.30;99.90
37528;DHT22;23372;52.050;4.810;2023-04-25T04:09:09;5.30;99.90
37528;DHT22;23372;52.050;4.810;2023-04-25T04:11:37;5.30;99.90
37528;DHT22;23372;52.050;4.810;2023-04-25T04:14:04;5.30;99.90
37528;DHT22;23372;52.050;4.810;2023-04-25T04:16:31;5.30;99.90
37528;DHT22;23372;52.050;4.810;2023-04-25T04:18:56;5.30;99.90
37528;DHT22;23372;52.050;4.810;2023-04-25T04:21:22;5.20;99.90
37528;DHT22;23372;52.050;4.810;2023-04-25T04:23:48;5.20;99.90
37528;DHT22;23372;52.050;4.810;2023-04-25T04:26:14;5.20;99.90
37528;DHT22;23372;52.050;4.810;2023-04-25T04:28:42;5.20;99.90
37528;DHT22;23372;52.050;4.810;2023-04-25T04:31:09;5.20;99.90
37528;DHT22;23372;52.050;4.810;2023-04-25T04:33:35;5.10;99.90
37528;DHT22;23372;52.050;4.810;2023-04-25T04:36:02;5.20;99.90
37528;DHT22;23372;52.050;4.810;2023-04-25T04:38:29;5.00;99.90
37528;DHT22;23372;52.050;4.810;2023-04-25T04:40:54;5.00;99.90
37528;DHT22;23372;52.050;4.810;2023-04-25T04:43:21;5.00;99.90
37528;DHT22;23372;52.050;4.810;2023-04-25T04:45:48;5.00;99.90
37528;DHT22;23372;52.050;4.810;2023-04-25T04:48:15;5.00;99.90
37528;DHT22;23372;52.050;4.810;2023-04-25T04:50:43;5.00;99.90
37528;DHT22;23372;52.050;4.810;2023-04-25T04:53:11;5.00;99.90
37528;DHT22;23372;52.050;4.810;2023-04-25T04:55:37;5.10;99.90
37528;DHT22;23372;52.050;4.810;2023-04-25T04:58:02;5.10;99.90
37528;DHT22;23372;52.050;4.810;2023-04-25T05:00:28;5.10;99.90
37528;DHT22;23372;52.050;4.810;2023-04-25T05:02:55;5.20;99.90
37528;DHT22;23372;52.050;4.810;2023-04-25T05:05:21;5.20;99.90
37528;DHT22;23372;52.050;4.810;2023-04-25T05:07:46;5.30;99.90
37528;DHT22;23372;52.050;4.810;2023-04-25T05:10:12;5.30;99.90
37528;DHT22;23372;52.050;4.810;2023-04-25T05:12:38;5.40;99.90
37528;DHT22;23372;52.050;4.810;2023-04-25T05:15:04;5.40;99.90
37528;DHT22;23372;52.050;4.810;2023-04-25T05:17:29;5.50;99.90
37528;DHT22;23372;52.050;4.810;2023-04-25T05:19:55;5.50;99.90
37528;DHT22;23372;52.050;4.810;2023-04-25T05:22:20;5.60;99.90
37528;DHT22;23372;52.050;4.810;2023-04-25T05:24:46;5.70;99.90
37528;DHT22;23372;52.050;4.810;2023-04-25T05:27:16;5.80;99.90
37528;DHT22;23372;52.050;4.810;2023-04-25T05:29:42;5.90;99.90
37528;DHT22;23372;52.050;4.810;2023-04-25T05:32:08;5.90;99.90
37528;DHT22;23372;52.050;4.810;2023-04-25T05:34:34;6.00;99.90
37528;DHT22;23372;52.050;4.810;2023-04-25T05:37:00;6.10;99.90
37528;DHT22;23372;52.050;4.810;2023-04-25T05:39:26;6.30;99.90
37528;DHT22;23372;52.050;4.810;2023-04-25T05:41:52;6.50;99.90
37528;DHT22;23372;52.050;4.810;2023-04-25T05:44:17;6.60;99.90
37528;DHT22;23372;52.050;4.810;2023-04-25T05:46:43;6.70;99.90
37528;DHT22;23372;52.050;4.810;2023-04-25T05:49:09;6.70;99.90
37528;DHT22;23372;52.050;4.810;2023-04-25T05:51:34;6.80;99.90
37528;DHT22;23372;52.050;4.810;2023-04-25T05:54:00;6.70;99.90
37528;DHT22;23372;52.050;4.810;2023-04-25T05:56:26;6.70;99.90
37528;DHT22;23372;52.050;4.810;2023-04-25T05:58:51;6.70;99.90
37528;DHT22;23372;52.050;4.810;2023-04-25T06:01:17;6.70;99.90
37528;DHT22;23372;52.050;4.810;2023-04-25T06:03:42;6.60;99.90
37528;DHT22;23372;52.050;4.810;2023-04-25T06:06:09;6.50;99.90
37528;DHT22;23372;52.050;4.810;2023-04-25T06:08:35;6.50;99.90
37528;DHT22;23372;52.050;4.810;2023-04-25T06:11:00;6.50;99.90
37528;DHT22;23372;52.050;4.810;2023-04-25T06:13:26;6.50;99.90
37528;DHT22;23372;52.050;4.810;2023-04-25T06:15:52;6.60;99.90
37528;DHT22;23372;52.050;4.810;2023-04-25T06:18:17;6.70;99.90
37528;DHT22;23372;52.050;4.810;2023-04-25T06:20:43;6.80;99.90
37528;DHT22;23372;52.050;4.810;2023-04-25T06:23:08;6.90;99.90
37528;DHT22;23372;52.050;4.810;2023-04-25T06:25:34;6.80;99.90
37528;DHT22;23372;52.050;4.810;2023-04-25T06:28:00;6.60;99.90
37528;DHT22;23372;52.050;4.810;2023-04-25T06:30:25;6.60;99.90
37528;DHT22;23372;52.050;4.810;2023-04-25T06:32:52;6.50;99.90
37528;DHT22;23372;52.050;4.810;2023-04-25T06:35:18;6.60;99.90
37528;DHT22;23372;52.050;4.810;2023-04-25T06:37:44;6.50;99.90
37528;DHT22;23372;52.050;4.810;2023-04-25T06:40:10;6.60;99.90
37528;DHT22;23372;52.050;4.810;2023-04-25T06:42:36;6.60;99.90
37528;DHT22;23372;52.050;4.810;2023-04-25T06:45:02;6.70;99.90
37528;DHT22;23372;52.050;4.810;2023-04-25T06:47:28;6.90;99.90
37528;DHT22;23372;52.050;4.810;2023-04-25T06:49:55;7.00;99.90
37528;DHT22;23372;52.050;4.810;2023-04-25T06:52:21;7.00;99.90
37528;DHT22;23372;52.050;4.810;2023-04-25T06:54:46;7.10;99.90
37528;DHT22;23372;52.050;4.810;2023-04-25T06:57:12;7.20;99.90
37528;DHT22;23372;52.050;4.810;2023-04-25T06:59:38;7.30;99.90
37528;DHT22;23372;52.050;4.810;2023-04-25T07:02:04;7.30;99.90
37528;DHT22;23372;52.050;4.810;2023-04-25T07:04:29;7.50;99.90
37528;DHT22;23372;52.050;4.810;2023-04-25T07:06:56;7.60;99.90
37528;DHT22;23372;52.050;4.810;2023-04-25T07:09:22;7.80;99.90
37528;DHT22;23372;52.050;4.810;2023-04-25T07:11:47;8.00;99.90
37528;DHT22;23372;52.050;4.810;2023-04-25T07:14:13;8.30;99.90
37528;DHT22;23372;52.050;4.810;2023-04-25T07:16:39;9.50;99.90
37528;DHT22;23372;52.050;4.810;2023-04-25T07:19:05;11.40;99.90
37528;DHT22;23372;52.050;4.810;2023-04-25T07:21:30;13.50;99.90
37528;DHT22;23372;52.050;4.810;2023-04-25T07:23:57;14.40;99.90
37528;DHT22;23372;52.050;4.810;2023-04-25T07:26:22;15.90;99.90
37528;DHT22;23372;52.050;4.810;2023-04-25T07:28:48;17.40;99.90
37528;DHT22;23372;52.050;4.810;2023-04-25T07:31:16;18.30;99.90
37528;DHT22;23372;52.050;4.810;2023-04-25T07:33:43;18.00;99.90
37528;DHT22;23372;52.050;4.810;2023-04-25T07:36:10;16.10;99.90
37528;DHT22;23372;52.050;4.810;2023-04-25T07:38:36;12.80;99.90
37528;DHT22;23372;52.050;4.810;2023-04-25T07:41:02;13.00;99.90
37528;DHT22;23372;52.050;4.810;2023-04-25T07:43:28;15.70;99.90
37528;DHT22;23372;52.050;4.810;2023-04-25T07:45:53;15.90;99.90
37528;DHT22;23372;52.050;4.810;2023-04-25T07:48:19;16.70;99.90
37528;DHT22;23372;52.050;4.810;2023-04-25T07:50:45;19.30;99.90
37528;DHT22;23372;52.050;4.810;2023-04-25T07:53:11;21.30;99.90
37528;DHT22;23372;52.050;4.810;2023-04-25T07:55:40;21.10;99.90
37528;DHT22;23372;52.050;4.810;2023-04-25T07:58:09;22.20;99.90
37528;DHT22;23372;52.050;4.810;2023-04-25T08:00:36;22.20;99.90
37528;DHT22;23372;52.050;4.810;2023-04-25T08:03:02;23.10;99.90
37528;DHT22;23372;52.050;4.810;2023-04-25T08:05:28;22.00;99.90
37528;DHT22;23372;52.050;4.810;2023-04-25T08:07:54;22.40;99.90
37528;DHT22;23372;52.050;4.810;2023-04-25T08:10:20;23.70;99.90
37528;DHT22;23372;52.050;4.810;2023-04-25T08:12:48;19.70;99.90
37528;DHT22;23372;52.050;4.810;2023-04-25T08:15:14;19.10;99.90
37528;DHT22;23372;52.050;4.810;2023-04-25T08:17:40;18.20;99.90
37528;DHT22;23372;52.050;4.810;2023-04-25T08:20:06;19.40;99.90
37528;DHT22;23372;52.050;4.810;2023-04-25T08:22:32;18.90;99.90
37528;DHT22;23372;52.050;4.810;2023-04-25T08:24:59;16.20;99.90
37528;DHT22;23372;52.050;4.810;2023-04-25T08:27:24;15.30;99.90
37528;DHT22;23372;52.050;4.810;2023-04-25T08:29:50;14.00;99.90
37528;DHT22;23372;52.050;4.810;2023-04-25T08:32:16;13.80;99.90
37528;DHT22;23372;52.050;4.810;2023-04-25T08:34:42;15.90;99.90
37528;DHT22;23372;52.050;4.810;2023-04-25T08:37:09;17.60;99.90
37528;DHT22;23372;52.050;4.810;2023-04-25T08:39:36;19.10;99.90
37528;DHT22;23372;52.050;4.810;2023-04-25T08:42:07;20.30;99.90
37528;DHT22;23372;52.050;4.810;2023-04-25T08:44:36;19.90;99.90
37528;DHT22;23372;52.050;4.810;2023-04-25T08:47:05;18.20;99.90
37528;DHT22;23372;52.050;4.810;2023-04-25T08:49:34;17.10;99.90
37528;DHT22;23372;52.050;4.810;2023-04-25T08:52:01;15.20;99.90
37528;DHT22;23372;52.050;4.810;2023-04-25T08:54:29;14.30;99.90
37528;DHT22;23372;52.050;4.810;2023-04-25T08:56:57;13.20;99.90
37528;DHT22;23372;52.050;4.810;2023-04-25T08:59:23;12.70;99.90
37528;DHT22;23372;52.050;4.810;2023-04-25T09:01:52;12.00;99.90
37528;DHT22;23372;52.050;4.810;2023-04-25T09:04:18;11.80;99.90
37528;DHT22;23372;52.050;4.810;2023-04-25T09:06:46;11.10;99.90
37528;DHT22;23372;52.050;4.810;2023-04-25T09:09:11;9.80;99.90
37528;DHT22;23372;52.050;4.810;2023-04-25T09:11:37;9.40;99.90
37528;DHT22;23372;52.050;4.810;2023-04-25T09:14:14;9.40;99.90
37528;DHT22;23372;52.050;4.810;2023-04-25T09:19:25;9.50;99.90
37528;DHT22;23372;52.050;4.810;2023-04-25T09:21:54;9.60;99.90
37528;DHT22;23372;52.050;4.810;2023-04-25T09:24:49;9.70;99.90
37528;DHT22;23372;52.050;4.810;2023-04-25T09:27:20;10.20;99.90
37528;DHT22;23372;52.050;4.810;2023-04-25T09:29:57;10.70;99.90
37528;DHT22;23372;52.050;4.810;2023-04-25T09:32:25;11.30;99.90
37528;DHT22;23372;52.050;4.810;2023-04-25T09:34:52;11.60;99.90
37528;DHT22;23372;52.050;4.810;2023-04-25T09:37:20;11.30;99.90
37528;DHT22;23372;52.050;4.810;2023-04-25T09:39:50;10.10;99.90
37528;DHT22;23372;52.050;4.810;2023-04-25T09:42:17;10.00;99.90
37528;DHT22;23372;52.050;4.810;2023-04-25T09:44:44;10.10;99.90
37528;DHT22;23372;52.050;4.810;2023-04-25T09:47:11;10.10;99.90
37528;DHT22;23372;52.050;4.810;2023-04-25T09:49:42;10.00;99.90
37528;DHT22;23372;52.050;4.810;2023-04-25T09:52:10;10.30;99.90
37528;DHT22;23372;52.050;4.810;2023-04-25T09:54:38;10.70;99.90
37528;DHT22;23372;52.050;4.810;2023-04-25T09:59:44;11.30;99.90
37528;DHT22;23372;52.050;4.810;2023-04-25T10:02:11;11.20;99.90
37528;DHT22;23372;52.050;4.810;2023-04-25T10:04:38;10.90;99.90
37528;DHT22;23372;52.050;4.810;2023-04-25T10:07:08;11.80;99.90
37528;DHT22;23372;52.050;4.810;2023-04-25T10:09:36;12.50;99.90
37528;DHT22;23372;52.050;4.810;2023-04-25T10:12:03;12.70;99.90
37528;DHT22;23372;52.050;4.810;2023-04-25T10:14:38;12.20;99.90
37528;DHT22;23372;52.050;4.810;2023-04-25T10:17:05;12.90;99.90
37528;DHT22;23372;52.050;4.810;2023-04-25T10:19:36;13.00;99.90
37528;DHT22;23372;52.050;4.810;2023-04-25T10:24:30;13.40;99.90
37528;DHT22;23372;52.050;4.810;2023-04-25T10:26:56;13.70;99.90
37528;DHT22;23372;52.050;4.810;2023-04-25T10:29:25;13.20;99.90
37528;DHT22;23372;52.050;4.810;2023-04-25T10:31:50;13.30;99.90
37528;DHT22;23372;52.050;4.810;2023-04-25T10:34:17;13.60;99.90
37528;DHT22;23372;52.050;4.810;2023-04-25T10:36:46;13.80;99.90
37528;DHT22;23372;52.050;4.810;2023-04-25T10:39:24;13.80;99.90
37528;DHT22;23372;52.050;4.810;2023-04-25T10:41:58;13.50;99.90
37528;DHT22;23372;52.050;4.810;2023-04-25T10:44:28;13.10;99.90
37528;DHT22;23372;52.050;4.810;2023-04-25T10:46:59;13.50;99.90
37528;DHT22;23372;52.050;4.810;2023-04-25T10:49:41;13.70;99.90
37528;DHT22;23372;52.050;4.810;2023-04-25T10:52:26;13.40;99.90
37528;DHT22;23372;52.050;4.810;2023-04-25T10:54:57;12.40;99.90
37528;DHT22;23372;52.050;4.810;2023-04-25T10:59:52;10.50;99.90
37528;DHT22;23372;52.050;4.810;2023-04-25T11:02:17;10.00;99.90
37528;DHT22;23372;52.050;4.810;2023-04-25T11:04:44;10.00;99.90
37528;DHT22;23372;52.050;4.810;2023-04-25T11:07:23;9.70;99.90
37528;DHT22;23372;52.050;4.810;2023-04-25T11:09:52;9.50;99.90
37528;DHT22;23372;52.050;4.810;2023-04-25T11:12:17;9.50;99.90
37528;DHT22;23372;52.050;4.810;2023-04-25T11:14:43;9.50;99.90
37528;DHT22;23372;52.050;4.810;2023-04-25T11:17:09;9.80;99.90
37528;DHT22;23372;52.050;4.810;2023-04-25T11:19:35;10.10;99.90
37528;DHT22;23372;52.050;4.810;2023-04-25T11:22:02;10.20;99.90
37528;DHT22;23372;52.050;4.810;2023-04-25T11:24:35;10.70;99.90
37528;DHT22;23372;52.050;4.810;2023-04-25T11:27:02;11.30;99.90
37528;DHT22;23372;52.050;4.810;2023-04-25T11:29:30;11.20;99.90
37528;DHT22;23372;52.050;4.810;2023-04-25T11:31:56;11.50;99.90
37528;DHT22;23372;52.050;4.810;2023-04-25T11:34:24;12.00;99.90
37528;DHT22;23372;52.050;4.810;2023-04-25T11:36:50;12.70;99.90
37528;DHT22;23372;52.050;4.810;2023-04-25T11:39:18;12.40;99.90
37528;DHT22;23372;52.050;4.810;2023-04-25T11:41:44;11.70;99.90
37528;DHT22;23372;52.050;4.810;2023-04-25T11:44:09;11.90;99.90
37528;DHT22;23372;52.050;4.810;2023-04-25T11:46:35;12.60;99.90
37528;DHT22;23372;52.050;4.810;2023-04-25T11:49:01;13.00;99.90
37528;DHT22;23372;52.050;4.810;2023-04-25T11:51:27;12.80;99.90
37528;DHT22;23372;52.050;4.810;2023-04-25T11:53:53;12.90;99.90
37528;DHT22;23372;52.050;4.810;2023-04-25T11:56:20;13.40;99.90
37528;DHT22;23372;52.050;4.810;2023-04-25T11:59:00;13.50;99.90
37528;DHT22;23372;52.050;4.810;2023-04-25T12:01:34;13.30;99.90
37528;DHT22;23372;52.050;4.810;2023-04-25T12:04:20;12.50;99.90
37528;DHT22;23372;52.050;4.810;2023-04-25T12:06:48;11.80;99.90
37528;DHT22;23372;52.050;4.810;2023-04-25T12:09:17;11.30;99.90
37528;DHT22;23372;52.050;4.810;2023-04-25T12:11:54;11.80;99.90
37528;DHT22;23372;52.050;4.810;2023-04-25T12:14:31;12.20;99.90
37528;DHT22;23372;52.050;4.810;2023-04-25T12:17:02;12.50;99.90
37528;DHT22;23372;52.050;4.810;2023-04-25T12:19:34;12.70;99.90
37528;DHT22;23372;52.050;4.810;2023-04-25T12:22:10;13.10;99.90
37528;DHT22;23372;52.050;4.810;2023-04-25T12:24:45;13.00;99.90
37528;DHT22;23372;52.050;4.810;2023-04-25T12:27:10;12.20;99.90
37528;DHT22;23372;52.050;4.810;2023-04-25T12:29:39;11.80;99.90
37528;DHT22;23372;52.050;4.810;2023-04-25T12:32:05;11.60;99.90
37528;DHT22;23372;52.050;4.810;2023-04-25T12:34:32;12.00;99.90
37528;DHT22;23372;52.050;4.810;2023-04-25T12:37:00;11.50;99.90
37528;DHT22;23372;52.050;4.810;2023-04-25T12:39:25;11.70;99.90
37528;DHT22;23372;52.050;4.810;2023-04-25T12:41:51;11.90;99.90
37528;DHT22;23372;52.050;4.810;2023-04-25T12:44:19;12.80;99.90
37528;DHT22;23372;52.050;4.810;2023-04-25T12:46:45;13.10;99.90
37528;DHT22;23372;52.050;4.810;2023-04-25T12:49:11;12.60;99.90
37528;DHT22;23372;52.050;4.810;2023-04-25T12:51:37;12.80;99.90
37528;DHT22;23372;52.050;4.810;2023-04-25T12:54:04;12.60;99.90
37528;DHT22;23372;52.050;4.810;2023-04-25T12:56:30;12.40;99.90
37528;DHT22;23372;52.050;4.810;2023-04-25T12:58:56;12.40;99.90
37528;DHT22;23372;52.050;4.810;2023-04-25T13:01:23;12.50;99.90
37528;DHT22;23372;52.050;4.810;2023-04-25T13:03:49;12.10;99.90
37528;DHT22;23372;52.050;4.810;2023-04-25T13:06:16;11.90;99.90
37528;DHT22;23372;52.050;4.810;2023-04-25T13:08:42;12.20;99.90
37528;DHT22;23372;52.050;4.810;2023-04-25T13:11:08;12.80;99.90
37528;DHT22;23372;52.050;4.810;2023-04-25T13:13:34;12.90;99.90
37528;DHT22;23372;52.050;4.810;2023-04-25T13:16:04;12.80;99.90
37528;DHT22;23372;52.050;4.810;2023-04-25T13:18:30;12.30;99.90
37528;DHT22;23372;52.050;4.810;2023-04-25T13:20:57;12.50;99.90
37528;DHT22;23372;52.050;4.810;2023-04-25T13:23:24;12.20;99.90
37528;DHT22;23372;52.050;4.810;2023-04-25T13:25:50;12.30;99.90
37528;DHT22;23372;52.050;4.810;2023-04-25T13:28:16;12.70;99.90
37528;DHT22;23372;52.050;4.810;2023-04-25T13:30:42;11.80;99.90
37528;DHT22;23372;52.050;4.810;2023-04-25T13:33:08;11.20;99.90
37528;DHT22;23372;52.050;4.810;2023-04-25T13:35:35;10.70;99.90
37528;DHT22;23372;52.050;4.810;2023-04-25T13:38:00;10.40;99.90
37528;DHT22;23372;52.050;4.810;2023-04-25T13:40:26;10.00;99.90
37528;DHT22;23372;52.050;4.810;2023-04-25T13:42:53;9.40;99.90
37528;DHT22;23372;52.050;4.810;2023-04-25T13:45:19;9.10;99.90
37528;DHT22;23372;52.050;4.810;2023-04-25T13:47:45;8.80;99.90
37528;DHT22;23372;52.050;4.810;2023-04-25T13:50:11;9.10;99.90
37528;DHT22;23372;52.050;4.810;2023-04-25T13:52:38;9.50;99.90
37528;DHT22;23372;52.050;4.810;2023-04-25T13:55:03;10.00;99.90
37528;DHT22;23372;52.050;4.810;2023-04-25T13:57:32;10.30;99.90
37528;DHT22;23372;52.050;4.810;2023-04-25T13:59:57;10.80;99.90
37528;DHT22;23372;52.050;4.810;2023-04-25T14:02:23;11.10;99.90
37528;DHT22;23372;52.050;4.810;2023-04-25T14:04:49;11.60;99.90
37528;DHT22;23372;52.050;4.810;2023-04-25T14:07:15;11.50;99.90
37528;DHT22;23372;52.050;4.810;2023-04-25T14:09:44;11.60;99.90
37528;DHT22;23372;52.050;4.810;2023-04-25T14:12:10;11.90;99.90
37528;DHT22;23372;52.050;4.810;2023-04-25T14:14:37;11.80;99.90
37528;DHT22;23372;52.050;4.810;2023-04-25T14:17:03;11.40;99.90
37528;DHT22;23372;52.050;4.810;2023-04-25T14:19:29;11.60;99.90
37528;DHT22;23372;52.050;4.810;2023-04-25T14:21:55;11.80;99.90
37528;DHT22;23372;52.050;4.810;2023-04-25T14:24:21;11.90;99.90
37528;DHT22;23372;52.050;4.810;2023-04-25T14:26:50;12.10;99.90
37528;DHT22;23372;52.050;4.810;2023-04-25T14:29:16;12.10;99.90
37528;DHT22;23372;52.050;4.810;2023-04-25T14:31:41;12.10;99.90
37528;DHT22;23372;52.050;4.810;2023-04-25T14:34:08;11.70;99.90
37528;DHT22;23372;52.050;4.810;2023-04-25T14:36:35;11.30;99.90
37528;DHT22;23372;52.050;4.810;2023-04-25T14:39:00;11.10;99.90
37528;DHT22;23372;52.050;4.810;2023-04-25T14:41:26;11.60;99.90
37528;DHT22;23372;52.050;4.810;2023-04-25T14:43:52;11.80;99.90
37528;DHT22;23372;52.050;4.810;2023-04-25T14:46:19;11.70;99.90
37528;DHT22;23372;52.050;4.810;2023-04-25T14:48:45;11.40;99.90
37528;DHT22;23372;52.050;4.810;2023-04-25T14:51:12;11.10;99.90
37528;DHT22;23372;52.050;4.810;2023-04-25T14:53:38;11.30;99.90
37528;DHT22;23372;52.050;4.810;2023-04-25T14:56:03;11.60;99.90
37528;DHT22;23372;52.050;4.810;2023-04-25T14:58:31;11.90;99.90
37528;DHT22;23372;52.050;4.810;2023-04-25T15:00:56;11.90;99.90
37528;DHT22;23372;52.050;4.810;2023-04-25T15:03:22;11.90;99.90
37528;DHT22;23372;52.050;4.810;2023-04-25T15:05:48;11.90;99.90
37528;DHT22;23372;52.050;4.810;2023-04-25T15:08:14;12.00;99.90
37528;DHT22;23372;52.050;4.810;2023-04-25T15:10:40;11.60;99.90
37528;DHT22;23372;52.050;4.810;2023-04-25T15:13:05;11.80;99.90
37528;DHT22;23372;52.050;4.810;2023-04-25T15:15:31;12.00;99.90
37528;DHT22;23372;52.050;4.810;2023-04-25T15:17:57;11.90;99.90
37528;DHT22;23372;52.050;4.810;2023-04-25T15:20:23;11.60;99.90
37528;DHT22;23372;52.050;4.810;2023-04-25T15:22:49;11.50;99.90
37528;DHT22;23372;52.050;4.810;2023-04-25T15:25:15;11.80;99.90
37528;DHT22;23372;52.050;4.810;2023-04-25T15:27:43;11.90;99.90
37528;DHT22;23372;52.050;4.810;2023-04-25T15:30:14;11.60;99.90
37528;DHT22;23372;52.050;4.810;2023-04-25T15:32:44;11.30;99.90
37528;DHT22;23372;52.050;4.810;2023-04-25T15:35:10;11.30;99.90
37528;DHT22;23372;52.050;4.810;2023-04-25T15:37:36;11.10;99.90
37528;DHT22;23372;52.050;4.810;2023-04-25T15:40:03;10.60;99.90
37528;DHT22;23372;52.050;4.810;2023-04-25T15:42:44;11.00;99.90
37528;DHT22;23372;52.050;4.810;2023-04-25T15:45:14;11.20;99.90